createdAt,value
2018-12-19T00:01:30.924Z,2.85
2018-12-19T00:03:59.251Z,2.58
2018-12-19T00:06:27.556Z,2.70
2018-12-19T00:08:55.953Z,2.98
2018-12-19T00:11:24.255Z,3.10
2018-12-19T00:13:52.583Z,3.33
2018-12-19T00:16:20.930Z,2.60
2018-12-19T00:18:49.280Z,2.70
2018-12-19T00:21:17.795Z,2.77
2018-12-19T00:23:46.154Z,3.00
2018-12-19T00:26:14.467Z,2.75
2018-12-19T00:28:42.818Z,3.05
2018-12-19T00:31:11.197Z,2.77
2018-12-19T00:33:39.512Z,2.75
2018-12-19T00:36:07.810Z,3.40
2018-12-19T00:38:36.123Z,2.62
2018-12-19T00:41:04.551Z,2.52
2018-12-19T00:43:32.907Z,2.58
2018-12-19T00:46:01.224Z,2.83
2018-12-19T00:48:30.177Z,2.85
2018-12-19T00:50:58.532Z,2.85
2018-12-19T00:53:27.463Z,2.80
2018-12-19T00:55:55.775Z,3.65
2018-12-19T00:58:24.080Z,2.10
2018-12-19T01:00:52.421Z,3.05
2018-12-19T01:03:20.754Z,2.83
2018-12-19T01:05:49.090Z,2.87
2018-12-19T01:08:17.392Z,2.75
2018-12-19T01:10:45.718Z,2.87
2018-12-19T01:13:16.049Z,3.00
2018-12-19T01:15:44.459Z,2.75
2018-12-19T01:18:12.898Z,2.60
2018-12-19T01:20:41.317Z,2.98
2018-12-19T01:23:09.667Z,2.42
2018-12-19T01:25:38.004Z,3.02
2018-12-19T01:28:06.317Z,2.80
2018-12-19T01:30:34.613Z,3.30
2018-12-19T01:33:02.984Z,3.60
2018-12-19T01:35:31.316Z,3.35
2018-12-19T01:37:59.633Z,2.80
2018-12-19T01:40:28.075Z,2.85
2018-12-19T01:42:56.435Z,3.60
2018-12-19T01:45:24.791Z,2.85
2018-12-19T01:47:53.387Z,3.37
2018-12-19T01:50:22.019Z,2.70
2018-12-19T01:52:50.347Z,3.12
2018-12-19T01:55:18.696Z,3.17
2018-12-19T01:57:47.015Z,2.80
2018-12-19T02:00:15.332Z,3.00
2018-12-19T02:02:43.651Z,2.80
2018-12-19T02:05:11.963Z,3.02
2018-12-19T02:07:40.298Z,2.30
2018-12-19T02:10:08.763Z,2.67
2018-12-19T02:12:37.081Z,3.00
2018-12-19T02:15:05.645Z,2.40
2018-12-19T02:17:33.957Z,3.00
2018-12-19T02:20:02.384Z,3.15
2018-12-19T02:22:30.691Z,2.75
2018-12-19T02:24:59.113Z,2.40
2018-12-19T02:27:27.664Z,4.05
2018-12-19T02:29:56.295Z,4.30
2018-12-19T02:32:24.587Z,2.08
2018-12-19T02:34:52.907Z,2.85
2018-12-19T02:39:59.273Z,2.12
2018-12-19T02:42:27.575Z,2.60
2018-12-19T02:44:55.920Z,2.90
2018-12-19T02:47:24.401Z,2.50
2018-12-19T02:49:52.803Z,2.55
2018-12-19T02:52:21.206Z,2.25
2018-12-19T02:54:49.529Z,2.77
2018-12-19T02:57:17.855Z,2.85
2018-12-19T02:59:46.241Z,3.30
2018-12-19T03:02:14.582Z,2.65
2018-12-19T03:04:42.925Z,2.70
2018-12-19T03:07:11.495Z,3.02
2018-12-19T03:09:42.960Z,2.65
2018-12-19T03:12:10.200Z,2.35
2018-12-19T03:14:38.509Z,2.30
2018-12-19T03:17:06.904Z,2.30
2018-12-19T03:19:35.258Z,2.98
2018-12-19T03:22:03.586Z,2.33
2018-12-19T03:24:31.916Z,2.58
2018-12-19T03:27:00.255Z,1.95
2018-12-19T03:29:28.815Z,2.27
2018-12-19T03:31:57.267Z,2.60
2018-12-19T03:34:25.827Z,3.08
2018-12-19T03:36:54.138Z,2.10
2018-12-19T03:39:22.679Z,2.20
2018-12-19T03:41:51.205Z,2.80
2018-12-19T03:44:19.610Z,2.75
2018-12-19T03:46:48.032Z,1.87
2018-12-19T03:49:16.414Z,2.15
2018-12-19T03:51:45.488Z,2.12
2018-12-19T03:54:13.954Z,2.25
2018-12-19T03:56:42.774Z,2.42
2018-12-19T03:59:11.127Z,3.30
2018-12-19T04:01:39.467Z,2.40
2018-12-19T04:04:07.763Z,2.70
2018-12-19T04:06:36.087Z,2.65
2018-12-19T04:09:06.463Z,2.52
2018-12-19T04:11:34.904Z,2.35
2018-12-19T04:14:03.233Z,2.60
2018-12-19T04:16:31.583Z,2.45
2018-12-19T04:18:59.941Z,2.92
2018-12-19T04:21:28.305Z,2.45
2018-12-19T04:23:56.740Z,3.33
2018-12-19T04:26:25.182Z,2.87
2018-12-19T04:28:53.498Z,2.40
2018-12-19T04:31:21.808Z,2.92
2018-12-19T04:33:50.187Z,2.10
2018-12-19T04:36:18.507Z,2.87
2018-12-19T04:38:47.311Z,3.00
2018-12-19T04:41:15.723Z,2.00
2018-12-19T04:43:44.071Z,2.52
2018-12-19T04:46:12.402Z,3.08
2018-12-19T04:48:40.748Z,2.65
2018-12-19T04:51:09.138Z,2.33
2018-12-19T04:53:37.552Z,3.20
2018-12-19T04:56:05.944Z,2.67
2018-12-19T04:58:34.270Z,3.00
2018-12-19T05:01:02.623Z,2.20
2018-12-19T05:03:30.949Z,2.50
2018-12-19T05:05:59.265Z,2.87
2018-12-19T05:08:27.672Z,2.92
2018-12-19T05:10:55.977Z,2.80
2018-12-19T05:13:24.292Z,2.65
2018-12-19T05:15:52.612Z,2.45
2018-12-19T05:18:21.088Z,2.15
2018-12-19T05:20:49.468Z,2.52
2018-12-19T05:23:17.786Z,2.20
2018-12-19T05:25:46.099Z,2.08
2018-12-19T05:28:14.647Z,2.40
2018-12-19T05:30:43.106Z,3.08
2018-12-19T05:33:11.463Z,2.40
2018-12-19T05:35:39.795Z,2.08
2018-12-19T05:38:08.124Z,2.20
2018-12-19T05:40:36.468Z,2.20
2018-12-19T05:43:04.843Z,3.45
2018-12-19T05:45:33.214Z,2.58
2018-12-19T05:48:01.572Z,2.50
2018-12-19T05:50:30.096Z,3.33
2018-12-19T05:52:58.492Z,2.22
2018-12-19T05:55:26.808Z,3.10
2018-12-19T05:57:55.214Z,2.35
2018-12-19T06:00:23.555Z,2.72
2018-12-19T06:02:51.906Z,3.10
2018-12-19T06:05:20.282Z,2.33
2018-12-19T06:07:48.628Z,2.67
2018-12-19T06:10:16.957Z,2.40
2018-12-19T06:12:45.446Z,3.10
2018-12-19T06:15:13.833Z,2.35
2018-12-19T06:17:42.251Z,2.52
2018-12-19T06:20:10.635Z,3.25
2018-12-19T06:22:38.964Z,2.70
2018-12-19T06:25:07.299Z,2.62
2018-12-19T06:27:35.628Z,2.55
2018-12-19T06:30:04.606Z,2.67
2018-12-19T06:32:32.920Z,2.35
2018-12-19T06:35:01.247Z,2.83
2018-12-19T06:37:29.662Z,3.60
2018-12-19T06:39:58.131Z,3.10
2018-12-19T06:42:26.479Z,2.85
2018-12-19T06:44:54.809Z,2.60
2018-12-19T06:47:23.164Z,2.42
2018-12-19T06:49:51.474Z,2.27
2018-12-19T06:52:19.887Z,2.52
2018-12-19T06:54:48.217Z,2.80
2018-12-19T06:57:16.603Z,2.50
2018-12-19T06:59:44.999Z,2.83
2018-12-19T07:02:13.340Z,2.60
2018-12-19T07:04:41.712Z,2.62
2018-12-19T07:07:10.030Z,2.33
2018-12-19T07:09:38.398Z,2.72
2018-12-19T07:12:06.763Z,3.08
2018-12-19T07:14:37.117Z,2.42
2018-12-19T07:17:05.512Z,2.42
2018-12-19T07:19:33.831Z,2.35
2018-12-19T07:22:02.200Z,2.50
2018-12-19T07:24:30.589Z,2.20
2018-12-19T07:26:58.911Z,3.10
2018-12-19T07:29:27.289Z,2.80
2018-12-19T07:31:55.623Z,2.15
2018-12-19T07:34:24.045Z,2.67
2018-12-19T07:36:52.461Z,2.58
2018-12-19T07:39:20.795Z,2.62
2018-12-19T07:41:49.115Z,2.85
2018-12-19T07:44:17.465Z,2.17
2018-12-19T07:46:45.817Z,1.95
2018-12-19T07:49:14.142Z,2.05
2018-12-19T07:51:42.469Z,2.50
2018-12-19T07:54:10.806Z,2.47
2018-12-19T07:56:39.163Z,2.77
2018-12-19T07:59:07.738Z,2.47
2018-12-19T08:01:36.066Z,2.85
2018-12-19T08:04:04.784Z,3.67
2018-12-19T08:06:33.139Z,2.67
2018-12-19T08:09:01.547Z,2.37
2018-12-19T08:11:29.899Z,3.08
2018-12-19T08:13:58.272Z,2.47
2018-12-19T08:16:26.602Z,2.33
2018-12-19T08:18:54.934Z,2.27
2018-12-19T08:21:23.266Z,2.22
2018-12-19T08:23:51.582Z,2.70
2018-12-19T08:26:19.960Z,2.65
2018-12-19T08:28:48.687Z,2.20
2018-12-19T08:31:17.004Z,2.17
2018-12-19T08:33:45.480Z,2.70
2018-12-19T08:36:13.834Z,2.85
2018-12-19T08:38:42.195Z,2.62
2018-12-19T08:41:10.536Z,2.47
2018-12-19T08:43:38.906Z,2.20
2018-12-19T08:46:07.277Z,2.75
2018-12-19T08:48:35.777Z,2.98
2018-12-19T08:51:04.158Z,2.63
2018-12-19T08:53:32.795Z,2.60
2018-12-19T08:56:01.114Z,2.73
2018-12-19T08:58:29.457Z,2.73
2018-12-19T09:00:57.790Z,2.67
2018-12-19T09:03:26.157Z,2.60
2018-12-19T09:05:54.472Z,2.85
2018-12-19T09:08:22.805Z,2.00
2018-12-19T09:10:51.228Z,2.60
2018-12-19T09:13:19.548Z,2.40
2018-12-19T09:15:51.009Z,2.53
2018-12-19T09:18:19.941Z,3.20
2018-12-19T09:20:48.283Z,2.60
2018-12-19T09:23:16.598Z,2.40
2018-12-19T09:25:45.050Z,2.93
2018-12-19T09:28:13.363Z,3.00
2018-12-19T09:30:41.810Z,2.50
2018-12-19T09:33:10.210Z,2.50
2018-12-19T09:35:38.630Z,2.70
2018-12-19T09:38:06.999Z,2.20
2018-12-19T09:40:35.351Z,2.47
2018-12-19T09:43:03.809Z,3.20
2018-12-19T09:45:32.147Z,2.93
2018-12-19T09:48:00.578Z,2.90
2018-12-19T09:50:29.006Z,3.00
2018-12-19T09:52:57.320Z,2.60
2018-12-19T09:55:25.655Z,3.00
2018-12-19T09:57:53.963Z,3.13
2018-12-19T10:00:28.123Z,2.93
2018-12-19T10:02:56.516Z,2.30
2018-12-19T10:05:25.135Z,2.33
2018-12-19T10:07:53.500Z,2.40
2018-12-19T10:10:21.823Z,2.87
2018-12-19T10:12:50.145Z,2.30
2018-12-19T10:15:18.488Z,3.20
2018-12-19T10:17:46.862Z,2.80
2018-12-19T10:20:15.181Z,2.77
2018-12-19T10:22:43.518Z,1.93
2018-12-19T10:25:13.560Z,2.97
2018-12-19T10:27:42.234Z,1.90
2018-12-19T10:30:11.775Z,2.23
2018-12-19T10:32:41.298Z,2.40
2018-12-19T10:35:10.598Z,2.00
2018-12-19T10:37:38.978Z,1.70
2018-12-19T10:40:09.233Z,2.03
2018-12-19T10:42:37.666Z,1.53
2018-12-19T10:45:07.513Z,1.63
2018-12-19T10:47:35.854Z,1.77
2018-12-19T10:50:06.805Z,1.50
2018-12-19T10:52:35.172Z,2.60
2018-12-19T10:55:04.211Z,1.20
2018-12-19T10:57:32.548Z,1.50
2018-12-19T11:00:00.878Z,1.20
2018-12-19T11:02:29.292Z,2.03
2018-12-19T11:04:57.675Z,1.20
2018-12-19T11:07:26.035Z,1.20
2018-12-19T11:09:54.392Z,1.57
2018-12-19T11:12:22.733Z,1.43
2018-12-19T11:14:51.090Z,1.10
2018-12-19T11:17:19.522Z,1.43
2018-12-19T11:19:47.844Z,2.00
2018-12-19T11:22:16.301Z,1.83
2018-12-19T11:24:44.647Z,1.57
2018-12-19T11:29:51.053Z,2.10
2018-12-19T11:32:19.421Z,2.53
2018-12-19T11:34:47.762Z,2.30
2018-12-19T11:37:16.132Z,1.70
2018-12-19T11:39:44.567Z,2.00
2018-12-19T11:42:12.950Z,2.13
2018-12-19T11:44:41.394Z,2.10
2018-12-19T11:47:09.740Z,2.63
2018-12-19T11:49:38.061Z,2.40
2018-12-19T11:52:08.000Z,1.87
2018-12-19T11:54:37.340Z,1.73
2018-12-19T11:57:06.079Z,1.23
2018-12-19T11:59:34.607Z,2.20
2018-12-19T12:02:02.945Z,1.57
2018-12-19T12:04:31.320Z,3.03
2018-12-19T12:06:59.868Z,1.30
2018-12-19T12:09:28.210Z,2.57
2018-12-19T12:11:56.547Z,1.40
2018-12-19T12:14:24.972Z,1.07
2018-12-19T12:16:54.429Z,1.53
2018-12-19T12:19:22.802Z,1.17
2018-12-19T12:21:51.203Z,0.90
2018-12-19T12:24:19.552Z,1.33
2018-12-19T12:26:47.947Z,1.07
2018-12-19T12:29:16.310Z,1.20
2018-12-19T12:31:44.690Z,0.93
2018-12-19T12:34:13.038Z,1.03
2018-12-19T12:36:41.407Z,1.20
2018-12-19T12:39:09.776Z,1.30
2018-12-19T12:41:38.095Z,1.00
2018-12-19T12:44:06.445Z,0.90
2018-12-19T12:46:34.786Z,1.13
2018-12-19T12:49:03.155Z,2.30
2018-12-19T12:51:31.576Z,1.23
2018-12-19T12:53:59.919Z,0.90
2018-12-19T12:56:28.334Z,1.00
2018-12-19T12:58:56.874Z,1.00
2018-12-19T13:01:25.242Z,0.90
2018-12-19T13:03:53.626Z,1.13
2018-12-19T13:06:22.003Z,0.80
2018-12-19T13:08:50.399Z,0.90
2018-12-19T13:11:19.269Z,0.90
2018-12-19T13:13:47.735Z,1.00
2018-12-19T13:16:16.145Z,0.77
2018-12-19T13:18:44.488Z,0.90
2018-12-19T13:21:12.834Z,1.03
2018-12-19T13:23:41.254Z,1.17
2018-12-19T13:26:09.603Z,0.90
2018-12-19T13:28:38.012Z,1.23
2018-12-19T13:31:06.371Z,1.17
2018-12-19T13:33:34.727Z,1.40
2018-12-19T13:36:03.054Z,1.00
2018-12-19T13:38:31.508Z,1.00
2018-12-19T13:40:59.862Z,0.80
2018-12-19T13:43:28.197Z,1.13
2018-12-19T13:45:56.568Z,0.97
2018-12-19T13:48:24.907Z,1.13
2018-12-19T13:50:53.271Z,0.90
2018-12-19T13:53:21.599Z,0.90
2018-12-19T13:55:50.077Z,1.00
2018-12-19T13:58:18.729Z,1.30
2018-12-19T14:00:47.108Z,1.30
2018-12-19T14:03:15.522Z,1.30
2018-12-19T14:05:43.830Z,1.37
2018-12-19T14:08:12.352Z,0.97
2018-12-19T14:10:40.852Z,1.13
2018-12-19T14:13:09.369Z,1.50
2018-12-19T14:15:37.711Z,1.10
2018-12-19T14:18:07.755Z,1.00
2018-12-19T14:20:36.128Z,1.00
2018-12-19T14:23:04.538Z,1.87
2018-12-19T14:25:32.948Z,1.40
2018-12-19T14:28:01.292Z,1.20
2018-12-19T14:30:29.756Z,1.00
2018-12-19T14:32:58.108Z,1.57
2018-12-19T14:35:26.439Z,1.30
2018-12-19T14:37:54.935Z,1.47
2018-12-19T14:40:23.357Z,1.20
2018-12-19T14:42:51.711Z,1.40
2018-12-19T14:45:20.197Z,1.80
2018-12-19T14:47:48.652Z,1.80
2018-12-19T14:50:17.001Z,1.40
2018-12-19T14:52:45.451Z,1.80
2018-12-19T14:55:13.822Z,1.30
2018-12-19T14:57:42.262Z,1.77
2018-12-19T15:00:11.108Z,1.80
2018-12-19T15:02:39.458Z,1.33
2018-12-19T15:05:08.064Z,1.57
2018-12-19T15:07:36.599Z,1.87
2018-12-19T15:10:07.678Z,1.70
2018-12-19T15:12:36.193Z,1.80
2018-12-19T15:15:07.328Z,1.10
2018-12-19T15:17:35.674Z,1.73
2018-12-19T15:20:05.110Z,1.50
2018-12-19T15:22:33.505Z,1.30
2018-12-19T15:25:01.865Z,1.70
2018-12-19T15:27:30.295Z,1.70
2018-12-19T15:29:58.946Z,2.20
2018-12-19T15:32:27.448Z,1.50
2018-12-19T15:34:56.033Z,1.70
2018-12-19T15:37:24.526Z,2.10
2018-12-19T15:39:52.876Z,1.13
2018-12-19T15:42:21.259Z,0.90
2018-12-19T15:44:49.611Z,1.23
2018-12-19T15:47:18.035Z,1.20
2018-12-19T15:49:46.422Z,0.90
2018-12-19T15:52:14.768Z,1.20
2018-12-19T15:54:43.494Z,1.00
2018-12-19T15:57:11.859Z,1.20
2018-12-19T15:59:40.357Z,1.10
2018-12-19T16:02:08.721Z,1.50
2018-12-19T16:04:37.076Z,1.10
2018-12-19T16:07:05.449Z,1.90
2018-12-19T16:09:33.833Z,1.40
2018-12-19T16:12:02.351Z,0.77
2018-12-19T16:14:30.792Z,1.67
2018-12-19T16:16:59.167Z,1.10
2018-12-19T16:19:27.664Z,1.33
2018-12-19T16:21:56.031Z,1.27
2018-12-19T16:24:24.401Z,1.10
2018-12-19T16:26:52.916Z,1.27
2018-12-19T16:29:21.626Z,1.73
2018-12-19T16:31:49.967Z,1.10
2018-12-19T16:34:18.414Z,1.37
2018-12-19T16:36:46.869Z,1.80
2018-12-19T16:39:15.220Z,1.70
2018-12-19T16:41:43.578Z,1.30
2018-12-19T16:44:12.676Z,1.70
2018-12-19T16:46:41.947Z,1.30
2018-12-19T16:49:10.299Z,1.40
2018-12-19T16:51:38.652Z,1.47
2018-12-19T16:54:07.252Z,1.30
2018-12-19T16:56:35.612Z,1.27
2018-12-19T16:59:04.111Z,1.70
2018-12-19T17:01:32.456Z,1.77
2018-12-19T17:04:00.777Z,1.00
2018-12-19T17:06:29.177Z,1.20
2018-12-19T17:08:57.612Z,1.53
2018-12-19T17:11:26.032Z,1.60
2018-12-19T17:13:54.415Z,1.70
2018-12-19T17:16:22.778Z,1.90
2018-12-19T17:18:51.116Z,1.83
2018-12-19T17:21:19.415Z,2.17
2018-12-19T17:23:47.835Z,1.80
2018-12-19T17:26:16.191Z,2.03
2018-12-19T17:28:44.605Z,2.03
2018-12-19T17:31:12.938Z,2.57
2018-12-19T17:33:41.240Z,2.10
2018-12-19T17:36:09.551Z,1.70
2018-12-19T17:38:37.943Z,2.20
2018-12-19T17:41:06.279Z,1.90
2018-12-19T17:43:34.652Z,2.30
2018-12-19T17:46:02.979Z,2.40
2018-12-19T17:48:31.336Z,2.87
2018-12-19T17:50:59.696Z,1.87
2018-12-19T17:53:28.060Z,2.10
2018-12-19T17:55:56.423Z,1.90
2018-12-19T17:58:24.750Z,2.20
2018-12-19T18:00:53.096Z,2.10
2018-12-19T18:03:21.551Z,2.80
2018-12-19T18:05:49.927Z,2.07
2018-12-19T18:08:18.251Z,3.13
2018-12-19T18:10:46.726Z,2.53
2018-12-19T18:13:15.123Z,2.23
2018-12-19T18:15:43.558Z,2.37
2018-12-19T18:18:11.875Z,2.17
2018-12-19T18:20:40.245Z,2.20
2018-12-19T18:23:08.768Z,2.43
2018-12-19T18:25:37.126Z,2.60
2018-12-19T18:28:05.540Z,2.73
2018-12-19T18:30:39.024Z,2.07
2018-12-19T18:33:07.400Z,3.17
2018-12-19T18:35:35.788Z,2.40
2018-12-19T18:38:04.109Z,2.97
2018-12-19T18:40:33.055Z,2.50
2018-12-19T18:43:01.533Z,2.13
2018-12-19T18:45:30.210Z,3.07
2018-12-19T18:47:58.595Z,2.60
2018-12-19T18:50:26.920Z,2.60
2018-12-19T18:52:55.452Z,2.40
2018-12-19T18:55:23.848Z,2.27
2018-12-19T18:57:52.268Z,2.57
2018-12-19T19:00:36.108Z,2.83
2018-12-19T19:03:05.202Z,2.60
2018-12-19T19:05:33.797Z,3.03
2018-12-19T19:08:02.269Z,2.60
2018-12-19T19:10:30.612Z,2.40
2018-12-19T19:12:59.888Z,2.20
2018-12-19T19:15:28.217Z,2.83
2018-12-19T19:17:56.629Z,2.50
2018-12-19T19:20:24.956Z,2.90
2018-12-19T19:22:53.446Z,2.73
2018-12-19T19:25:21.890Z,3.10
2018-12-19T19:27:50.198Z,3.27
2018-12-19T19:30:18.705Z,3.50
2018-12-19T19:32:47.147Z,3.67
2018-12-19T19:35:15.585Z,2.77
2018-12-19T19:37:43.955Z,3.30
2018-12-19T19:40:12.402Z,3.37
2018-12-19T19:42:40.704Z,2.83
2018-12-19T19:45:09.030Z,3.40
2018-12-19T19:47:37.613Z,3.97
2018-12-19T19:50:07.539Z,3.20
2018-12-19T19:52:36.015Z,2.83
2018-12-19T19:55:04.765Z,3.80
2018-12-19T19:57:33.202Z,4.07
2018-12-19T20:00:01.884Z,3.50
2018-12-19T20:02:30.279Z,3.80
2018-12-19T20:04:58.750Z,3.03
2018-12-19T20:07:27.161Z,3.50
2018-12-19T20:09:55.585Z,3.27
2018-12-19T20:12:23.969Z,3.73
2018-12-19T20:14:52.443Z,3.50
2018-12-19T20:17:27.183Z,3.27
2018-12-19T20:19:56.165Z,3.27
2018-12-19T20:22:24.502Z,3.65
2018-12-19T20:24:54.252Z,3.63
2018-12-19T20:27:22.878Z,3.60
2018-12-19T20:29:51.320Z,3.70
2018-12-19T20:32:19.795Z,4.20
2018-12-19T20:34:48.299Z,3.93
2018-12-19T20:37:16.751Z,4.57
2018-12-19T20:39:45.575Z,3.60
2018-12-19T20:42:14.286Z,3.90
2018-12-19T20:44:43.001Z,3.93
2018-12-19T20:47:11.361Z,3.93
2018-12-19T20:49:39.942Z,4.07
2018-12-19T20:52:08.592Z,4.70
2018-12-19T20:54:36.950Z,3.80
2018-12-19T20:57:05.327Z,4.07
2018-12-19T20:59:33.685Z,4.20
2018-12-19T21:02:03.378Z,3.67
2018-12-19T21:04:31.928Z,3.40
2018-12-19T21:07:00.258Z,3.70
2018-12-19T21:09:28.649Z,4.57
2018-12-19T21:11:57.037Z,3.90
2018-12-19T21:14:25.387Z,3.67
2018-12-19T21:19:55.100Z,3.80
2018-12-19T21:22:23.541Z,4.73
2018-12-19T21:24:51.944Z,3.63
2018-12-19T21:27:20.304Z,4.50
2018-12-19T21:29:48.645Z,4.50
2018-12-19T21:32:16.988Z,3.67
2018-12-19T21:34:45.377Z,5.10
2018-12-19T21:37:13.736Z,5.17
2018-12-19T21:39:42.219Z,4.10
2018-12-19T21:42:10.760Z,4.93
2018-12-19T21:44:39.178Z,3.97
2018-12-19T21:47:07.524Z,5.33
2018-12-19T21:49:35.884Z,5.10
2018-12-19T21:52:04.605Z,4.80
2018-12-19T21:54:32.972Z,4.40
2018-12-19T21:57:02.924Z,4.05
2018-12-19T21:59:31.643Z,3.80
2018-12-19T22:02:00.047Z,4.30
2018-12-19T22:04:28.476Z,4.80
2018-12-19T22:06:57.082Z,4.50
2018-12-19T22:09:25.542Z,4.40
2018-12-19T22:11:53.878Z,5.73
2018-12-19T22:14:22.268Z,4.20
2018-12-19T22:16:56.146Z,5.33
2018-12-19T22:19:24.535Z,4.67
2018-12-19T22:21:53.043Z,5.12
2018-12-19T22:24:21.560Z,4.47
2018-12-19T22:26:49.953Z,4.92
2018-12-19T22:29:18.321Z,4.40
2018-12-19T22:31:46.737Z,4.13
2018-12-19T22:34:15.127Z,4.00
2018-12-19T22:36:43.519Z,4.83
2018-12-19T22:39:13.867Z,4.85
2018-12-19T22:41:42.258Z,4.05
2018-12-19T22:44:10.728Z,4.28
2018-12-19T22:46:52.963Z,4.05
2018-12-19T22:49:21.344Z,4.15
2018-12-19T22:51:49.763Z,4.45
2018-12-19T22:54:18.206Z,3.55
2018-12-19T22:56:46.636Z,4.12
2018-12-19T22:59:15.001Z,3.70
2018-12-19T23:01:48.914Z,4.20
2018-12-19T23:04:17.400Z,4.62
2018-12-19T23:06:45.832Z,4.30
2018-12-19T23:09:14.335Z,4.60
2018-12-19T23:11:42.773Z,4.47
2018-12-19T23:14:15.450Z,3.42
2018-12-19T23:16:43.300Z,4.40
2018-12-19T23:19:11.668Z,4.50
2018-12-19T23:21:40.082Z,4.10
2018-12-19T23:24:08.455Z,3.87
2018-12-19T23:26:37.513Z,4.53
2018-12-19T23:29:05.857Z,3.75
2018-12-19T23:31:34.323Z,3.98
2018-12-19T23:34:02.863Z,3.47
2018-12-19T23:36:31.411Z,3.95
2018-12-19T23:38:59.803Z,3.87
2018-12-19T23:41:28.224Z,3.70
2018-12-19T23:43:56.672Z,4.05
2018-12-19T23:46:25.399Z,3.90
2018-12-19T23:48:53.830Z,2.25
2018-12-19T23:51:22.195Z,4.10
2018-12-19T23:53:50.758Z,3.33
2018-12-19T23:56:19.115Z,3.08
2018-12-19T23:58:47.518Z,3.50
